sensor_id;sensor_type;location;lat;lon;timestamp;pressure;altitude;pressure_sealevel;temperature
28803;BMP280;15949;55.656;37.422;2022-08-19T00:01:56;100078.44;;;19.98
28803;BMP280;15949;55.656;37.422;2022-08-19T00:07:05;100071.06;;;19.93
28803;BMP280;15949;55.656;37.422;2022-08-19T00:12:11;100076.34;;;19.82
28803;BMP280;15949;55.656;37.422;2022-08-19T00:17:16;100077.91;;;19.88
28803;BMP280;15949;55.656;37.422;2022-08-19T00:22:22;100075.19;;;19.88
28803;BMP280;15949;55.656;37.422;2022-08-19T00:27:27;100085.16;;;19.77
28803;BMP280;15949;55.656;37.422;2022-08-19T00:32:33;100085.06;;;19.65
28803;BMP280;15949;55.656;37.422;2022-08-19T00:37:39;100084.78;;;19.63
28803;BMP280;15949;55.656;37.422;2022-08-19T00:42:48;100086.22;;;19.59
28803;BMP280;15949;55.656;37.422;2022-08-19T00:47:53;100089.19;;;19.61
28803;BMP280;15949;55.656;37.422;2022-08-19T00:52:59;100096.13;;;19.67
28803;BMP280;15949;55.656;37.422;2022-08-19T00:58:12;100106.69;;;19.65
28803;BMP280;15949;55.656;37.422;2022-08-19T01:03:19;100112.97;;;19.57
28803;BMP280;15949;55.656;37.422;2022-08-19T01:08:25;100112.72;;;19.55
28803;BMP280;15949;55.656;37.422;2022-08-19T01:13:32;100120.88;;;19.60
28803;BMP280;15949;55.656;37.422;2022-08-19T01:18:41;100123.53;;;19.55
28803;BMP280;15949;55.656;37.422;2022-08-19T01:23:47;100126.47;;;19.57
28803;BMP280;15949;55.656;37.422;2022-08-19T01:28:56;100119.78;;;19.52
28803;BMP280;15949;55.656;37.422;2022-08-19T01:34:03;100115.31;;;19.43
28803;BMP280;15949;55.656;37.422;2022-08-19T01:39:11;100111.72;;;19.32
28803;BMP280;15949;55.656;37.422;2022-08-19T01:44:17;100109.75;;;19.12
28803;BMP280;15949;55.656;37.422;2022-08-19T01:49:25;100108.28;;;19.11
28803;BMP280;15949;55.656;37.422;2022-08-19T01:54:32;100105.28;;;19.09
28803;BMP280;15949;55.656;37.422;2022-08-19T01:59:40;100105.63;;;19.16
28803;BMP280;15949;55.656;37.422;2022-08-19T02:04:46;100099.66;;;19.12
28803;BMP280;15949;55.656;37.422;2022-08-19T02:09:51;100101.19;;;19.13
28803;BMP280;15949;55.656;37.422;2022-08-19T02:14:58;100109.75;;;19.12
28803;BMP280;15949;55.656;37.422;2022-08-19T02:20:04;100096.94;;;19.07
28803;BMP280;15949;55.656;37.422;2022-08-19T02:25:13;100121.13;;;19.16
28803;BMP280;15949;55.656;37.422;2022-08-19T02:30:19;100139.59;;;19.03
28803;BMP280;15949;55.656;37.422;2022-08-19T02:35:25;100136.78;;;18.97
28803;BMP280;15949;55.656;37.422;2022-08-19T02:40:31;100133.09;;;18.94
28803;BMP280;15949;55.656;37.422;2022-08-19T02:45:39;100135.13;;;19.00
28803;BMP280;15949;55.656;37.422;2022-08-19T02:50:46;100126.69;;;18.92
28803;BMP280;15949;55.656;37.422;2022-08-19T02:55:52;100144.31;;;18.87
28803;BMP280;15949;55.656;37.422;2022-08-19T03:00:58;100128.19;;;18.78
28803;BMP280;15949;55.656;37.422;2022-08-19T03:06:09;100125.91;;;18.71
28803;BMP280;15949;55.656;37.422;2022-08-19T03:11:21;100136.91;;;18.67
28803;BMP280;15949;55.656;37.422;2022-08-19T03:16:29;100143.69;;;18.63
28803;BMP280;15949;55.656;37.422;2022-08-19T03:21:35;100143.78;;;18.54
28803;BMP280;15949;55.656;37.422;2022-08-19T03:26:52;100148.63;;;18.50
28803;BMP280;15949;55.656;37.422;2022-08-19T03:32:03;100151.88;;;18.54
28803;BMP280;15949;55.656;37.422;2022-08-19T03:37:11;100156.66;;;18.59
28803;BMP280;15949;55.656;37.422;2022-08-19T03:42:19;100139.34;;;18.51
28803;BMP280;15949;55.656;37.422;2022-08-19T03:47:25;100136.53;;;18.60
28803;BMP280;15949;55.656;37.422;2022-08-19T03:52:31;100145.44;;;18.66
28803;BMP280;15949;55.656;37.422;2022-08-19T03:57:36;100136.13;;;18.67
28803;BMP280;15949;55.656;37.422;2022-08-19T04:02:42;100143.75;;;18.83
28803;BMP280;15949;55.656;37.422;2022-08-19T04:07:48;100147.41;;;19.01
28803;BMP280;15949;55.656;37.422;2022-08-19T04:12:54;100145.41;;;19.16
28803;BMP280;15949;55.656;37.422;2022-08-19T04:17:59;100147.56;;;19.32
28803;BMP280;15949;55.656;37.422;2022-08-19T04:23:05;100146.47;;;19.44
28803;BMP280;15949;55.656;37.422;2022-08-19T04:28:12;100140.28;;;19.59
28803;BMP280;15949;55.656;37.422;2022-08-19T04:33:20;100153.16;;;19.69
28803;BMP280;15949;55.656;37.422;2022-08-19T04:38:26;100153.72;;;19.79
28803;BMP280;15949;55.656;37.422;2022-08-19T04:43:33;100151.94;;;19.96
28803;BMP280;15949;55.656;37.422;2022-08-19T04:48:39;100168.78;;;20.12
28803;BMP280;15949;55.656;37.422;2022-08-19T04:53:45;100162.25;;;20.24
28803;BMP280;15949;55.656;37.422;2022-08-19T04:58:51;100164.06;;;20.33
28803;BMP280;15949;55.656;37.422;2022-08-19T05:03:58;100172.56;;;20.52
28803;BMP280;15949;55.656;37.422;2022-08-19T05:09:04;100169.69;;;20.61
28803;BMP280;15949;55.656;37.422;2022-08-19T05:14:11;100173.81;;;20.93
28803;BMP280;15949;55.656;37.422;2022-08-19T05:19:17;100173.13;;;21.04
28803;BMP280;15949;55.656;37.422;2022-08-19T05:24:42;100176.13;;;21.17
28803;BMP280;15949;55.656;37.422;2022-08-19T05:29:47;100170.44;;;21.10
28803;BMP280;15949;55.656;37.422;2022-08-19T05:34:53;100166.28;;;21.20
28803;BMP280;15949;55.656;37.422;2022-08-19T05:39:59;100168.50;;;21.16
28803;BMP280;15949;55.656;37.422;2022-08-19T05:45:05;100176.63;;;21.21
28803;BMP280;15949;55.656;37.422;2022-08-19T05:50:11;100168.50;;;21.16
28803;BMP280;15949;55.656;37.422;2022-08-19T05:55:17;100174.41;;;21.20
28803;BMP280;15949;55.656;37.422;2022-08-19T06:00:25;100173.94;;;21.27
28803;BMP280;15949;55.656;37.422;2022-08-19T06:05:31;100168.59;;;21.49
28803;BMP280;15949;55.656;37.422;2022-08-19T06:10:36;100161.25;;;21.55
28803;BMP280;15949;55.656;37.422;2022-08-19T06:15:42;100173.50;;;21.45
28803;BMP280;15949;55.656;37.422;2022-08-19T06:20:49;100186.91;;;21.66
28803;BMP280;15949;55.656;37.422;2022-08-19T06:25:55;100184.66;;;21.64
28803;BMP280;15949;55.656;37.422;2022-08-19T06:31:06;100179.78;;;21.85
28803;BMP280;15949;55.656;37.422;2022-08-19T06:36:25;100181.50;;;21.99
28803;BMP280;15949;55.656;37.422;2022-08-19T06:41:39;100187.94;;;22.19
28803;BMP280;15949;55.656;37.422;2022-08-19T06:46:45;100181.53;;;22.22
28803;BMP280;15949;55.656;37.422;2022-08-19T06:51:51;100189.16;;;22.23
28803;BMP280;15949;55.656;37.422;2022-08-19T06:56:58;100187.44;;;22.03
28803;BMP280;15949;55.656;37.422;2022-08-19T07:02:07;100179.56;;;22.11
28803;BMP280;15949;55.656;37.422;2022-08-19T07:07:14;100189.19;;;22.18
28803;BMP280;15949;55.656;37.422;2022-08-19T07:12:20;100188.63;;;22.36
28803;BMP280;15949;55.656;37.422;2022-08-19T07:17:26;100187.34;;;22.71
28803;BMP280;15949;55.656;37.422;2022-08-19T07:22:39;100189.75;;;23.02
28803;BMP280;15949;55.656;37.422;2022-08-19T07:27:44;100178.25;;;23.32
28803;BMP280;15949;55.656;37.422;2022-08-19T07:32:50;100182.59;;;23.46
28803;BMP280;15949;55.656;37.422;2022-08-19T07:37:57;100186.50;;;23.56
28803;BMP280;15949;55.656;37.422;2022-08-19T07:43:03;100185.25;;;23.57
28803;BMP280;15949;55.656;37.422;2022-08-19T07:48:08;100189.38;;;23.69
28803;BMP280;15949;55.656;37.422;2022-08-19T07:53:14;100188.28;;;23.84
28803;BMP280;15949;55.656;37.422;2022-08-19T07:58:21;100189.88;;;24.04
28803;BMP280;15949;55.656;37.422;2022-08-19T08:03:28;100190.75;;;24.17
28803;BMP280;15949;55.656;37.422;2022-08-19T08:08:52;100189.44;;;24.48
28803;BMP280;15949;55.656;37.422;2022-08-19T08:14:44;100184.06;;;24.67
28803;BMP280;15949;55.656;37.422;2022-08-19T08:19:51;100195.41;;;24.71
28803;BMP280;15949;55.656;37.422;2022-08-19T08:25:01;100200.97;;;24.60
28803;BMP280;15949;55.656;37.422;2022-08-19T08:30:11;100211.19;;;24.78
28803;BMP280;15949;55.656;37.422;2022-08-19T08:35:19;100203.97;;;25.00
28803;BMP280;15949;55.656;37.422;2022-08-19T08:41:05;100203.69;;;25.03
28803;BMP280;15949;55.656;37.422;2022-08-19T08:46:15;100192.59;;;25.33
28803;BMP280;15949;55.656;37.422;2022-08-19T08:51:33;100203.50;;;25.33
28803;BMP280;15949;55.656;37.422;2022-08-19T08:56:41;100200.22;;;25.03
28803;BMP280;15949;55.656;37.422;2022-08-19T09:01:48;100205.72;;;24.78
28803;BMP280;15949;55.656;37.422;2022-08-19T09:17:59;100204.78;;;25.83
28803;BMP280;15949;55.656;37.422;2022-08-19T09:23:06;100206.38;;;25.92
28803;BMP280;15949;55.656;37.422;2022-08-19T09:28:13;100201.13;;;26.21
28803;BMP280;15949;55.656;37.422;2022-08-19T09:33:19;100198.72;;;26.17
28803;BMP280;15949;55.656;37.422;2022-08-19T09:38:24;100214.59;;;26.32
28803;BMP280;15949;55.656;37.422;2022-08-19T09:43:32;100218.69;;;26.38
28803;BMP280;15949;55.656;37.422;2022-08-19T09:48:39;100222.91;;;26.39
28803;BMP280;15949;55.656;37.422;2022-08-19T09:53:47;100221.00;;;26.61
28803;BMP280;15949;55.656;37.422;2022-08-19T09:58:57;100205.00;;;26.65
28803;BMP280;15949;55.656;37.422;2022-08-19T10:04:02;100221.22;;;26.36
28803;BMP280;15949;55.656;37.422;2022-08-19T10:09:15;100211.56;;;26.49
28803;BMP280;15949;55.656;37.422;2022-08-19T10:14:20;100219.97;;;26.51
28803;BMP280;15949;55.656;37.422;2022-08-19T10:19:28;100226.44;;;26.87
28803;BMP280;15949;55.656;37.422;2022-08-19T10:24:40;100223.47;;;26.98
28803;BMP280;15949;55.656;37.422;2022-08-19T10:29:46;100232.69;;;27.09
28803;BMP280;15949;55.656;37.422;2022-08-19T10:34:53;100228.44;;;27.21
28803;BMP280;15949;55.656;37.422;2022-08-19T10:39:59;100233.41;;;27.43
28803;BMP280;15949;55.656;37.422;2022-08-19T10:45:05;100217.41;;;27.47
28803;BMP280;15949;55.656;37.422;2022-08-19T10:50:11;100223.94;;;27.44
28803;BMP280;15949;55.656;37.422;2022-08-19T10:55:35;100236.16;;;27.43
28803;BMP280;15949;55.656;37.422;2022-08-19T11:00:59;100226.59;;;27.57
28803;BMP280;15949;55.656;37.422;2022-08-19T11:06:07;100233.09;;;27.68
28803;BMP280;15949;55.656;37.422;2022-08-19T11:11:13;100235.44;;;28.13
28803;BMP280;15949;55.656;37.422;2022-08-19T11:16:21;100229.75;;;28.11
28803;BMP280;15949;55.656;37.422;2022-08-19T11:21:32;100224.34;;;27.90
28803;BMP280;15949;55.656;37.422;2022-08-19T11:26:39;100219.91;;;27.87
28803;BMP280;15949;55.656;37.422;2022-08-19T11:31:46;100213.66;;;27.79
28803;BMP280;15949;55.656;37.422;2022-08-19T11:36:53;100213.22;;;27.75
28803;BMP280;15949;55.656;37.422;2022-08-19T11:42:01;100218.00;;;27.74
28803;BMP280;15949;55.656;37.422;2022-08-19T11:47:08;100229.41;;;27.86
28803;BMP280;15949;55.656;37.422;2022-08-19T11:52:14;100217.78;;;27.93
28803;BMP280;15949;55.656;37.422;2022-08-19T11:57:19;100218.97;;;28.05
28803;BMP280;15949;55.656;37.422;2022-08-19T12:02:25;100213.00;;;28.22
28803;BMP280;15949;55.656;37.422;2022-08-19T12:07:30;100212.38;;;28.08
28803;BMP280;15949;55.656;37.422;2022-08-19T12:12:38;100220.75;;;27.53
28803;BMP280;15949;55.656;37.422;2022-08-19T12:17:47;100231.53;;;27.38
28803;BMP280;15949;55.656;37.422;2022-08-19T12:22:53;100233.47;;;27.72
28803;BMP280;15949;55.656;37.422;2022-08-19T12:27:59;100215.41;;;27.69
28803;BMP280;15949;55.656;37.422;2022-08-19T12:33:04;100208.41;;;27.60
28803;BMP280;15949;55.656;37.422;2022-08-19T12:38:11;100209.28;;;27.34
28803;BMP280;15949;55.656;37.422;2022-08-19T12:43:16;100221.16;;;27.37
28803;BMP280;15949;55.656;37.422;2022-08-19T12:48:22;100221.97;;;27.31
28803;BMP280;15949;55.656;37.422;2022-08-19T12:53:28;100214.59;;;27.06
28803;BMP280;15949;55.656;37.422;2022-08-19T12:58:34;100215.94;;;26.78
28803;BMP280;15949;55.656;37.422;2022-08-19T13:03:40;100216.91;;;26.54
28803;BMP280;15949;55.656;37.422;2022-08-19T13:08:46;100217.75;;;26.49
28803;BMP280;15949;55.656;37.422;2022-08-19T13:13:52;100224.34;;;26.01
28803;BMP280;15949;55.656;37.422;2022-08-19T13:19:00;100219.56;;;25.75
28803;BMP280;15949;55.656;37.422;2022-08-19T13:24:08;100213.25;;;25.80
28803;BMP280;15949;55.656;37.422;2022-08-19T13:29:13;100233.41;;;25.77
28803;BMP280;15949;55.656;37.422;2022-08-19T13:34:37;100234.19;;;25.40
28803;BMP280;15949;55.656;37.422;2022-08-19T13:39:44;100234.94;;;25.21
28803;BMP280;15949;55.656;37.422;2022-08-19T13:44:53;100227.41;;;25.27
28803;BMP280;15949;55.656;37.422;2022-08-19T13:50:02;100226.53;;;25.19
28803;BMP280;15949;55.656;37.422;2022-08-19T13:55:08;100240.66;;;24.99
28803;BMP280;15949;55.656;37.422;2022-08-19T14:00:17;100249.31;;;24.78
28803;BMP280;15949;55.656;37.422;2022-08-19T14:05:25;100252.78;;;24.55
28803;BMP280;15949;55.656;37.422;2022-08-19T14:10:31;100255.41;;;24.36
28803;BMP280;15949;55.656;37.422;2022-08-19T14:15:37;100248.38;;;24.21
28803;BMP280;15949;55.656;37.422;2022-08-19T14:20:43;100250.19;;;24.13
28803;BMP280;15949;55.656;37.422;2022-08-19T14:25:49;100253.06;;;24.21
28803;BMP280;15949;55.656;37.422;2022-08-19T14:30:55;100247.28;;;24.30
28803;BMP280;15949;55.656;37.422;2022-08-19T14:36:00;100261.25;;;24.21
28803;BMP280;15949;55.656;37.422;2022-08-19T14:41:16;100249.84;;;24.22
28803;BMP280;15949;55.656;37.422;2022-08-19T14:46:25;100257.78;;;24.20
28803;BMP280;15949;55.656;37.422;2022-08-19T14:51:31;100256.94;;;24.01
28803;BMP280;15949;55.656;37.422;2022-08-19T14:56:39;100267.44;;;23.86
28803;BMP280;15949;55.656;37.422;2022-08-19T15:01:45;100281.38;;;23.77
28803;BMP280;15949;55.656;37.422;2022-08-19T15:06:51;100285.84;;;23.68
28803;BMP280;15949;55.656;37.422;2022-08-19T15:11:56;100267.78;;;23.65
28803;BMP280;15949;55.656;37.422;2022-08-19T15:17:04;100272.56;;;23.59
28803;BMP280;15949;55.656;37.422;2022-08-19T15:22:10;100282.47;;;23.51
28803;BMP280;15949;55.656;37.422;2022-08-19T15:27:16;100277.50;;;23.55
28803;BMP280;15949;55.656;37.422;2022-08-19T15:32:21;100280.72;;;23.48
28803;BMP280;15949;55.656;37.422;2022-08-19T15:37:28;100291.59;;;23.48
28803;BMP280;15949;55.656;37.422;2022-08-19T15:42:37;100285.94;;;23.46
28803;BMP280;15949;55.656;37.422;2022-08-19T15:47:43;100299.63;;;23.29
28803;BMP280;15949;55.656;37.422;2022-08-19T15:52:57;100308.00;;;23.26
28803;BMP280;15949;55.656;37.422;2022-08-19T15:58:08;100300.88;;;23.23
28803;BMP280;15949;55.656;37.422;2022-08-19T16:03:33;100303.34;;;23.21
28803;BMP280;15949;55.656;37.422;2022-08-19T16:08:59;100305.31;;;23.14
28803;BMP280;15949;55.656;37.422;2022-08-19T16:14:08;100311.50;;;23.09
28803;BMP280;15949;55.656;37.422;2022-08-19T16:19:16;100313.75;;;23.05
28803;BMP280;15949;55.656;37.422;2022-08-19T16:24:24;100310.31;;;22.88
28803;BMP280;15949;55.656;37.422;2022-08-19T16:29:30;100303.94;;;22.80
28803;BMP280;15949;55.656;37.422;2022-08-19T16:34:40;100306.84;;;22.71
28803;BMP280;15949;55.656;37.422;2022-08-19T16:39:46;100311.81;;;22.55
28803;BMP280;15949;55.656;37.422;2022-08-19T16:44:52;100330.31;;;22.40
28803;BMP280;15949;55.656;37.422;2022-08-19T16:49:57;100343.38;;;22.30
28803;BMP280;15949;55.656;37.422;2022-08-19T16:55:04;100345.81;;;22.23
28803;BMP280;15949;55.656;37.422;2022-08-19T17:00:10;100362.59;;;22.04
28803;BMP280;15949;55.656;37.422;2022-08-19T17:05:17;100370.25;;;22.12
28803;BMP280;15949;55.656;37.422;2022-08-19T17:10:23;100377.88;;;22.07
28803;BMP280;15949;55.656;37.422;2022-08-19T17:15:29;100367.50;;;22.00
28803;BMP280;15949;55.656;37.422;2022-08-19T17:20:37;100363.75;;;21.92
28803;BMP280;15949;55.656;37.422;2022-08-19T17:25:42;100370.16;;;21.95
28803;BMP280;15949;55.656;37.422;2022-08-19T17:30:48;100359.28;;;21.84
28803;BMP280;15949;55.656;37.422;2022-08-19T17:35:53;100368.13;;;21.73
28803;BMP280;15949;55.656;37.422;2022-08-19T17:41:00;100366.53;;;21.61
28803;BMP280;15949;55.656;37.422;2022-08-19T17:46:10;100373.19;;;21.60
28803;BMP280;15949;55.656;37.422;2022-08-19T17:56:39;100369.59;;;21.31
28803;BMP280;15949;55.656;37.422;2022-08-19T18:01:46;100374.44;;;21.16
28803;BMP280;15949;55.656;37.422;2022-08-19T18:06:53;100371.59;;;21.05
28803;BMP280;15949;55.656;37.422;2022-08-19T18:11:59;100374.38;;;20.84
28803;BMP280;15949;55.656;37.422;2022-08-19T18:17:07;100368.72;;;20.82
28803;BMP280;15949;55.656;37.422;2022-08-19T18:22:32;100382.94;;;20.77
28803;BMP280;15949;55.656;37.422;2022-08-19T18:27:41;100387.28;;;20.69
28803;BMP280;15949;55.656;37.422;2022-08-19T18:32:49;100395.69;;;20.71
28803;BMP280;15949;55.656;37.422;2022-08-19T18:38:00;100393.13;;;20.62
28803;BMP280;15949;55.656;37.422;2022-08-19T18:43:26;100390.56;;;20.53
28803;BMP280;15949;55.656;37.422;2022-08-19T18:48:55;100390.47;;;20.41
28803;BMP280;15949;55.656;37.422;2022-08-19T18:54:10;100396.72;;;20.27
28803;BMP280;15949;55.656;37.422;2022-08-19T18:59:16;100392.06;;;20.33
28803;BMP280;15949;55.656;37.422;2022-08-19T19:04:29;100392.56;;;20.32
28803;BMP280;15949;55.656;37.422;2022-08-19T19:09:37;100392.94;;;20.24
28803;BMP280;15949;55.656;37.422;2022-08-19T19:14:42;100387.09;;;20.26
28803;BMP280;15949;55.656;37.422;2022-08-19T19:19:48;100389.94;;;20.17
28803;BMP280;15949;55.656;37.422;2022-08-19T19:24:54;100396.13;;;20.03
28803;BMP280;15949;55.656;37.422;2022-08-19T19:29:59;100385.63;;;19.90
28803;BMP280;15949;55.656;37.422;2022-08-19T19:35:08;100388.44;;;19.95
28803;BMP280;15949;55.656;37.422;2022-08-19T19:40:14;100387.88;;;19.91
28803;BMP280;15949;55.656;37.422;2022-08-19T19:45:20;100396.81;;;19.97
28803;BMP280;15949;55.656;37.422;2022-08-19T19:50:27;100401.41;;;19.91
28803;BMP280;15949;55.656;37.422;2022-08-19T19:55:34;100397.47;;;19.92
28803;BMP280;15949;55.656;37.422;2022-08-19T20:00:40;100396.28;;;19.93
28803;BMP280;15949;55.656;37.422;2022-08-19T20:05:47;100395.53;;;19.93
28803;BMP280;15949;55.656;37.422;2022-08-19T20:10:52;100411.41;;;19.85
28803;BMP280;15949;55.656;37.422;2022-08-19T20:15:58;100414.09;;;19.85
28803;BMP280;15949;55.656;37.422;2022-08-19T20:21:04;100416.66;;;19.74
28803;BMP280;15949;55.656;37.422;2022-08-19T20:26:10;100422.63;;;19.78
28803;BMP280;15949;55.656;37.422;2022-08-19T20:31:16;100416.94;;;19.76
28803;BMP280;15949;55.656;37.422;2022-08-19T20:36:23;100421.31;;;19.74
28803;BMP280;15949;55.656;37.422;2022-08-19T20:41:29;100423.38;;;19.64
28803;BMP280;15949;55.656;37.422;2022-08-19T20:46:34;100420.63;;;19.58
28803;BMP280;15949;55.656;37.422;2022-08-19T20:51:40;100411.84;;;19.49
28803;BMP280;15949;55.656;37.422;2022-08-19T20:56:46;100419.13;;;19.42
28803;BMP280;15949;55.656;37.422;2022-08-19T21:01:51;100431.59;;;19.40
28803;BMP280;15949;55.656;37.422;2022-08-19T21:06:57;100437.19;;;19.36
28803;BMP280;15949;55.656;37.422;2022-08-19T21:12:04;100444.66;;;19.41
28803;BMP280;15949;55.656;37.422;2022-08-19T21:17:10;100441.69;;;19.39
28803;BMP280;15949;55.656;37.422;2022-08-19T21:22:16;100437.75;;;19.40
28803;BMP280;15949;55.656;37.422;2022-08-19T21:27:21;100434.47;;;19.36
28803;BMP280;15949;55.656;37.422;2022-08-19T21:32:27;100440.72;;;19.13
28803;BMP280;15949;55.656;37.422;2022-08-19T21:37:32;100439.31;;;19.03
28803;BMP280;15949;55.656;37.422;2022-08-19T21:42:39;100430.00;;;19.04
28803;BMP280;15949;55.656;37.422;2022-08-19T21:47:45;100434.00;;;19.08
28803;BMP280;15949;55.656;37.422;2022-08-19T21:52:51;100436.41;;;19.06
28803;BMP280;15949;55.656;37.422;2022-08-19T21:57:58;100434.38;;;19.01
28803;BMP280;15949;55.656;37.422;2022-08-19T22:03:04;100439.03;;;19.01
28803;BMP280;15949;55.656;37.422;2022-08-19T22:08:10;100445.53;;;18.94
28803;BMP280;15949;55.656;37.422;2022-08-19T22:13:18;100443.84;;;18.97
28803;BMP280;15949;55.656;37.422;2022-08-19T22:18:24;100451.31;;;19.02
28803;BMP280;15949;55.656;37.422;2022-08-19T22:23:29;100451.69;;;18.94
28803;BMP280;15949;55.656;37.422;2022-08-19T22:28:36;100458.28;;;18.79
28803;BMP280;15949;55.656;37.422;2022-08-19T22:33:41;100453.09;;;18.66
28803;BMP280;15949;55.656;37.422;2022-08-19T22:38:47;100454.59;;;18.67
28803;BMP280;15949;55.656;37.422;2022-08-19T22:43:52;100458.28;;;18.55
28803;BMP280;15949;55.656;37.422;2022-08-19T22:48:58;100465.84;;;18.65
28803;BMP280;15949;55.656;37.422;2022-08-19T22:54:04;100455.66;;;18.60
28803;BMP280;15949;55.656;37.422;2022-08-19T22:59:10;100459.19;;;18.52
28803;BMP280;15949;55.656;37.422;2022-08-19T23:04:16;100456.78;;;18.54
28803;BMP280;15949;55.656;37.422;2022-08-19T23:09:22;100459.38;;;18.48
28803;BMP280;15949;55.656;37.422;2022-08-19T23:14:27;100467.22;;;18.37
28803;BMP280;15949;55.656;37.422;2022-08-19T23:19:33;100482.38;;;18.34
28803;BMP280;15949;55.656;37.422;2022-08-19T23:24:39;100488.44;;;18.20
28803;BMP280;15949;55.656;37.422;2022-08-19T23:29:44;100492.69;;;18.03
28803;BMP280;15949;55.656;37.422;2022-08-19T23:35:09;100494.53;;;17.97
28803;BMP280;15949;55.656;37.422;2022-08-19T23:40:14;100483.19;;;17.83
28803;BMP280;15949;55.656;37.422;2022-08-19T23:45:23;100483.78;;;17.69
28803;BMP280;15949;55.656;37.422;2022-08-19T23:50:29;100487.69;;;17.68
28803;BMP280;15949;55.656;37.422;2022-08-19T23:55:37;100484.09;;;17.53
